Time;durP1;ratioP1;P1;durP2;ratioP2;P2;SDS_P1;SDS_P2;PMS_P1;PMS_P2;Temp;Humidity;BMP_temperature;BMP_pressure;BME280_temperature;BME280_humidity;BME280_pressure;Samples;Min_cycle;Max_cycle;Signal;HPM_P1;HPM_P2
2022/02/09 00:04:58;;;;;;;;;;;;;;;5.13;100.00;98946.70;1637022;87;26009;-88
2022/02/09 00:07:17;;;;;;;;;;;;;;;5.15;100.00;98949.62;1631293;86;25119;-88
2022/02/09 00:09:38;;;;;;;;;;;;;;;5.17;100.00;98952.16;1633224;87;20288;-88
2022/02/09 00:12:09;;;;;;;;;;;;;;;5.17;100.00;98963.39;1631516;87;24936;-88
2022/02/09 00:14:43;;;;;;;;;;;;;;;5.20;100.00;98965.00;1625649;86;22077;-84
2022/02/09 00:17:35;;;;;;;;;;;;;;;5.20;100.00;98966.30;1632266;86;22152;-88
2022/02/09 00:30:47;;;;;;;;;;;;;;;5.22;100.00;98971.83;1623370;87;26083;-88
2022/02/09 00:40:58;;;;;;;;;;;;;;;5.22;100.00;98983.95;1669350;85;21451;-88
2022/02/09 00:43:37;;;;;;;;;;;;;;;5.22;100.00;98988.69;1672594;85;26044;-88
2022/02/09 01:56:35;;;;;;;;;;;;;;;5.37;100.00;99005.39;1670715;84;20282;-87
2022/02/09 01:59:02;;;;;;;;;;;;;;;5.38;100.00;99017.02;1671241;84;24746;-87
2022/02/09 02:01:29;;;;;;;;;;;;;;;5.37;100.00;99004.10;1668984;85;22132;-87
2022/02/09 02:03:55;;;;;;;;;;;;;;;5.37;100.00;99008.84;1664255;84;26039;-86
2022/02/09 02:06:21;;;;;;;;;;;;;;;5.39;100.00;99006.19;1667048;84;24437;-87
2022/02/09 02:08:48;;;;;;;;;;;;;;;5.40;100.00;99001.40;1676090;84;20247;-86
2022/02/09 02:19:07;;;;;;;;;;;;;;;5.37;100.00;99010.14;1674782;84;24483;-88
2022/02/09 02:21:40;;;;;;;;;;;;;;;5.37;100.00;99015.78;1676596;84;20261;-87
2022/02/09 02:29:39;;;;;;;;;;;;;;;5.36;100.00;99010.19;1649182;85;26296;-83
2022/02/09 02:32:05;;;;;;;;;;;;;;;5.36;100.00;99014.08;1676245;85;24532;-87
2022/02/09 02:34:43;;;;;;;;;;;;;;;5.34;100.00;99012.02;1664129;84;20331;-88
2022/02/09 02:47:37;;;;;;;;;;;;;;;5.33;100.00;99037.12;1675781;84;20261;-87
2022/02/09 02:58:32;;;;;;;;;;;;;;;5.35;100.00;99046.97;1671073;84;24548;-89
2022/02/09 03:08:56;;;;;;;;;;;;;;;5.37;100.00;99043.03;1668805;84;26103;-89
2022/02/09 03:14:05;;;;;;;;;;;;;;;5.34;100.00;99047.91;1679005;84;20529;-88
2022/02/09 03:16:39;;;;;;;;;;;;;;;5.34;100.00;99047.05;1672410;84;25208;-88
2022/02/09 03:21:46;;;;;;;;;;;;;;;5.34;100.00;99045.31;1668422;84;26844;-88
2022/02/09 03:24:11;;;;;;;;;;;;;;;5.34;100.00;99046.61;1674525;84;24485;-88
2022/02/09 03:43:16;;;;;;;;;;;;;;;5.33;100.00;99044.91;1665903;85;25030;-87
2022/02/09 03:45:51;;;;;;;;;;;;;;;5.36;100.00;99046.52;1666599;84;22732;-88
2022/02/09 03:53:23;;;;;;;;;;;;;;;5.39;100.00;99049.86;1666003;85;20282;-85
2022/02/09 03:56:00;;;;;;;;;;;;;;;5.40;100.00;99045.04;1666509;84;24945;-88
2022/02/09 03:58:15;;;;;;;;;;;;;;;5.42;100.00;99052.77;1662252;85;22873;-87
2022/02/09 04:00:44;;;;;;;;;;;;;;;5.42;100.00;99047.13;1663811;84;25980;-87
2022/02/09 04:03:17;;;;;;;;;;;;;;;5.45;100.00;99046.19;1671251;84;24754;-87
2022/02/09 04:05:41;;;;;;;;;;;;;;;5.47;100.00;99049.09;1673142;84;20248;-88
2022/02/09 04:08:12;;;;;;;;;;;;;;;5.48;100.00;99045.59;1675423;85;24749;-87
2022/02/09 04:10:41;;;;;;;;;;;;;;;5.51;100.00;99047.70;1663048;84;22113;-88
2022/02/09 04:13:28;;;;;;;;;;;;;;;5.52;100.00;99042.42;1669274;84;26058;-88
2022/02/09 04:41:06;;;;;;;;;;;;;;;5.61;100.00;99039.48;1638775;85;25869;-89
2022/02/09 04:51:22;;;;;;;;;;;;;;;5.56;100.00;99039.27;1646809;85;22757;-88
2022/02/09 04:56:42;;;;;;;;;;;;;;;5.54;100.00;99047.56;1668149;85;24552;-88
2022/02/09 04:59:16;;;;;;;;;;;;;;;5.54;100.00;99042.36;1668932;84;20284;-90
2022/02/09 05:21:36;;;;;;;;;;;;;;;5.58;100.00;99059.50;1658190;84;26102;-89
2022/02/09 05:26:48;;;;;;;;;;;;;;;5.59;100.00;99056.01;1665433;84;20811;-87
2022/02/09 05:29:08;;;;;;;;;;;;;;;5.61;100.00;99068.48;1658249;84;24698;-88
2022/02/09 05:31:34;;;;;;;;;;;;;;;5.61;100.00;99066.73;1665227;84;20856;-89
2022/02/09 05:34:00;;;;;;;;;;;;;;;5.61;100.00;99077.13;1674545;85;26069;-89
2022/02/09 05:36:26;;;;;;;;;;;;;;;5.62;100.00;99078.78;1660157;84;24396;-88
2022/02/09 05:38:52;;;;;;;;;;;;;;;5.62;100.00;99081.38;1671479;85;20244;-89
2022/02/09 05:41:25;;;;;;;;;;;;;;;5.61;100.00;99086.20;1661986;84;24804;-89
2022/02/09 05:43:51;;;;;;;;;;;;;;;5.63;100.00;99091.32;1671433;84;21997;-89
2022/02/09 05:49:30;;;;;;;;;;;;;;;5.64;100.00;99083.92;1666369;84;24546;-88
2022/02/09 05:51:52;;;;;;;;;;;;;;;5.65;100.00;99092.97;1664619;85;20176;-88
2022/02/09 05:56:49;;;;;;;;;;;;;;;5.67;100.00;99091.61;1666440;84;22306;-84
2022/02/09 05:59:28;;;;;;;;;;;;;;;5.65;100.00;99090.37;1671896;84;26099;-87
2022/02/09 06:01:45;;;;;;;;;;;;;;;5.65;100.00;99094.71;1666414;84;24462;-88
2022/02/09 06:04:11;;;;;;;;;;;;;;;5.66;100.00;99090.77;1667275;84;20581;-87
2022/02/09 06:06:37;;;;;;;;;;;;;;;5.67;100.00;99098.11;1668292;84;24778;-88
2022/02/09 06:09:03;;;;;;;;;;;;;;;5.69;100.00;99096.27;1662933;84;21886;-88
2022/02/09 06:11:45;;;;;;;;;;;;;;;5.70;100.00;99092.33;1666452;84;25930;-88
2022/02/09 06:14:39;;;;;;;;;;;;;;;5.70;100.00;99091.48;1667992;85;24021;-88
2022/02/09 06:22:05;;;;;;;;;;;;;;;5.72;100.00;99093.13;1660817;85;22013;-87
2022/02/09 06:24:32;;;;;;;;;;;;;;;5.74;100.00;99102.13;1669637;84;25650;-84
2022/02/09 06:26:58;;;;;;;;;;;;;;;5.74;100.00;99106.02;1670338;85;24601;-84
2022/02/09 06:29:24;;;;;;;;;;;;;;;5.75;100.00;99105.12;1673010;84;20329;-84
2022/02/09 06:31:52;;;;;;;;;;;;;;;5.76;100.00;99107.67;1665166;84;25716;-84
2022/02/09 06:34:20;;;;;;;;;;;;;;;5.76;100.00;99110.72;1668329;84;22819;-84
2022/02/09 06:36:58;;;;;;;;;;;;;;;5.76;100.00;99108.13;1667240;84;26053;-84
2022/02/09 06:39:16;;;;;;;;;;;;;;;5.78;100.00;99115.41;1668163;84;24757;-85
2022/02/09 06:41:42;;;;;;;;;;;;;;;5.79;100.00;99120.97;1672918;84;20238;-88
2022/02/09 06:44:09;;;;;;;;;;;;;;;5.80;100.00;99117.02;1669214;85;24794;-88
2022/02/09 06:46:37;;;;;;;;;;;;;;;5.81;100.00;99120.02;1659652;86;22049;-89
2022/02/09 06:49:05;;;;;;;;;;;;;;;5.84;100.00;99116.44;1656015;85;26114;-88
2022/02/09 06:51:34;;;;;;;;;;;;;;;5.85;100.00;99122.03;1629175;87;25421;-85
2022/02/09 06:54:03;;;;;;;;;;;;;;;5.86;100.00;99122.42;1627363;86;20954;-89
2022/02/09 06:56:56;;;;;;;;;;;;;;;5.89;100.00;99121.88;1631933;86;24781;-88
2022/02/09 06:59:21;;;;;;;;;;;;;;;5.92;100.00;99119.63;1665488;85;22603;-88
2022/02/09 07:01:47;;;;;;;;;;;;;;;5.98;100.00;99115.93;1675516;85;26085;-89
2022/02/09 07:04:13;;;;;;;;;;;;;;;6.00;100.00;99117.55;1672412;85;25395;-85
2022/02/09 07:06:39;;;;;;;;;;;;;;;6.01;100.00;99115.34;1671665;85;20222;-84
2022/02/09 07:09:06;;;;;;;;;;;;;;;6.04;100.00;99110.49;1667330;85;24920;-84
2022/02/09 07:11:32;;;;;;;;;;;;;;;6.07;100.00;99112.95;1672339;85;22869;-84
2022/02/09 07:14:04;;;;;;;;;;;;;;;6.08;100.00;99109.00;1674714;84;26642;-84
2022/02/09 07:16:31;;;;;;;;;;;;;;;6.11;100.00;99115.36;1656046;85;24449;-84
2022/02/09 07:19:00;;;;;;;;;;;;;;;6.11;100.00;99106.75;1632067;86;20543;-89
2022/02/09 07:21:33;;;;;;;;;;;;;;;6.11;100.00;99108.86;1666368;86;24864;-89
2022/02/09 07:24:18;;;;;;;;;;;;;;;6.11;100.00;99114.05;1666064;86;21968;-89
2022/02/09 07:29:16;;;;;;;;;;;;;;;6.14;100.00;99122.20;1665325;86;24479;-89
2022/02/09 07:31:45;;;;;;;;;;;;;;;6.14;100.00;99117.84;1662673;86;20249;-87
2022/02/09 07:34:12;;;;;;;;;;;;;;;6.14;100.00;99107.45;1663258;86;24887;-84
2022/02/09 07:36:45;;;;;;;;;;;;;;;6.15;100.00;99107.84;1646253;86;22198;-84
2022/02/09 07:39:13;;;;;;;;;;;;;;;6.17;100.00;99108.61;1665923;84;26861;-86
2022/02/09 07:41:43;;;;;;;;;;;;;;;6.18;100.00;99109.45;1661466;86;24482;-87
2022/02/09 07:47:02;;;;;;;;;;;;;;;6.20;100.00;99105.91;1664934;85;25485;-88
2022/02/09 07:49:25;;;;;;;;;;;;;;;6.23;100.00;99108.81;1661760;86;22898;-88
2022/02/09 07:52:08;;;;;;;;;;;;;;;6.24;100.00;99106.16;1662350;86;26639;-89
2022/02/09 07:54:30;;;;;;;;;;;;;;;6.23;100.00;99100.56;1622092;87;24435;-89
2022/02/09 07:56:56;;;;;;;;;;;;;;;6.28;100.00;99105.56;1623542;86;20291;-87
2022/02/09 07:59:24;;;;;;;;;;;;;;;6.32;100.00;99102.41;1659030;85;20265;-87
2022/02/09 08:01:51;;;;;;;;;;;;;;;6.34;100.00;99101.86;1661973;85;22178;-85
2022/02/09 08:04:17;;;;;;;;;;;;;;;6.40;100.00;99108.11;1660578;86;26076;-84
2022/02/09 08:06:45;;;;;;;;;;;;;;;6.42;100.00;99114.95;1625597;87;24495;-86
2022/02/09 08:11:55;;;;;;;;;;;;;;;6.45;100.00;99110.05;1660189;84;24770;-87
2022/02/09 08:30:48;;;;;;;;;;;;;;;6.63;100.00;99108.83;1655850;86;26057;-86
2022/02/09 08:33:20;;;;;;;;;;;;;;;6.71;100.00;99112.38;1658360;86;24382;-85
2022/02/09 08:35:46;;;;;;;;;;;;;;;6.76;100.00;99113.05;1640589;86;20517;-86
2022/02/09 08:38:12;;;;;;;;;;;;;;;6.84;100.00;99115.30;1626869;86;24684;-86
2022/02/09 08:40:38;;;;;;;;;;;;;;;6.86;100.00;99113.04;1656439;86;22001;-86
2022/02/09 08:43:05;;;;;;;;;;;;;;;6.92;100.00;99115.38;1661511;85;25938;-86
2022/02/09 08:45:31;;;;;;;;;;;;;;;6.97;100.00;99108.20;1660104;86;24408;-86
2022/02/09 08:47:57;;;;;;;;;;;;;;;7.00;100.00;99104.15;1654685;86;20253;-83
2022/02/09 08:50:28;;;;;;;;;;;;;;;7.05;100.00;99113.05;1661555;85;24055;-86
2022/02/09 08:52:54;;;;;;;;;;;;;;;7.07;100.00;99112.08;1655354;85;22040;-87
2022/02/09 08:55:21;;;;;;;;;;;;;;;7.10;100.00;99105.42;1662624;85;21007;-87
2022/02/09 08:57:47;;;;;;;;;;;;;;;7.15;100.00;99109.96;1660755;86;25210;-87
2022/02/09 09:00:31;;;;;;;;;;;;;;;7.23;100.00;99110.93;1638713;86;20232;-87
2022/02/09 09:03:05;;;;;;;;;;;;;;;7.31;100.00;99110.59;1659906;85;25631;-87
2022/02/09 09:05:27;;;;;;;;;;;;;;;7.36;100.00;99109.47;1631254;86;20277;-87
2022/02/09 09:07:55;;;;;;;;;;;;;;;7.39;100.00;99113.67;1658939;85;26584;-88
2022/02/09 09:10:26;;;;;;;;;;;;;;;7.40;100.00;99114.06;1657873;85;24510;-86
2022/02/09 10:01:49;;;;;;;;;;;;;;;7.72;100.00;99107.34;1664378;85;26075;-87
2022/02/09 10:04:17;;;;;;;;;;;;;;;7.79;100.00;99107.45;1660796;85;25539;-88
2022/02/09 10:34:35;;;;;;;;;;;;;;;8.19;100.00;99067.23;1659013;85;20477;-90
2022/02/09 10:37:02;;;;;;;;;;;;;;;8.23;100.00;99062.27;1649198;86;24888;-86
2022/02/09 10:42:23;;;;;;;;;;;;;;;8.29;100.00;99054.14;1653810;86;26095;-84
2022/02/09 10:44:53;;;;;;;;;;;;;;;8.32;100.00;99056.61;1655840;86;24630;-84
2022/02/09 10:47:20;;;;;;;;;;;;;;;8.38;100.00;99058.91;1655880;86;20301;-85
2022/02/09 10:50:04;;;;;;;;;;;;;;;8.40;100.00;99049.22;1655278;85;24808;-85
2022/02/09 10:52:40;;;;;;;;;;;;;;;8.42;100.00;99055.67;1649849;86;22129;-86
2022/02/09 10:55:31;;;;;;;;;;;;;;;8.48;100.00;99045.77;1652328;85;21357;-89
2022/02/09 10:57:58;;;;;;;;;;;;;;;8.56;100.00;99038.41;1652028;85;24516;-89
2022/02/09 11:00:29;;;;;;;;;;;;;;;8.59;100.00;99034.32;1652499;85;20493;-90
2022/02/09 11:02:54;;;;;;;;;;;;;;;8.62;100.00;99034.64;1615811;87;38745;-89
2022/02/09 11:05:22;;;;;;;;;;;;;;;8.68;100.00;99029.91;1652903;85;22040;-89
2022/02/09 11:07:48;;;;;;;;;;;;;;;8.71;100.00;99023.70;1651329;85;26001;-87
2022/02/09 11:10:15;;;;;;;;;;;;;;;8.70;100.00;99022.86;1657141;85;24292;-85
2022/02/09 11:12:42;;;;;;;;;;;;;;;8.67;100.00;99022.19;1620658;88;20305;-88
2022/02/09 11:15:10;;;;;;;;;;;;;;;8.68;100.00;99019.48;1623094;86;24770;-89
2022/02/09 11:17:40;;;;;;;;;;;;;;;8.71;100.00;99021.95;1622850;87;21994;-88
2022/02/09 11:20:19;;;;;;;;;;;;;;;8.76;100.00;99016.48;1628058;87;26032;-89
2022/02/09 11:22:51;;;;;;;;;;;;;;;8.79;100.00;99023.67;1626937;87;25971;-90
2022/02/09 11:25:43;;;;;;;;;;;;;;;8.87;100.00;99026.34;1621619;87;20553;-90
2022/02/09 11:28:20;;;;;;;;;;;;;;;8.90;100.00;99028.77;1622936;87;24817;-88
2022/02/09 11:31:08;;;;;;;;;;;;;;;8.88;100.00;99026.27;1596014;88;21676;-88
2022/02/09 11:33:38;;;;;;;;;;;;;;;8.81;100.00;99024.90;1589958;88;26281;-88
2022/02/09 11:36:04;;;;;;;;;;;;;;;8.78;100.00;99032.91;1579641;89;24631;-86
2022/02/09 11:38:42;;;;;;;;;;;;;;;8.75;100.00;99033.90;1596651;85;20275;-85
2022/02/09 11:41:10;;;;;;;;;;;;;;;8.71;100.00;99021.09;1627389;87;24901;-85
2022/02/09 11:43:41;;;;;;;;;;;;;;;8.65;100.00;99027.48;1621810;87;21384;-88
2022/02/09 11:57:19;;;;;;;;;;;;;;;8.73;100.00;99030.52;1656781;86;21894;-89
2022/02/09 12:00:04;;;;;;;;;;;;;;;8.77;100.00;99025.53;1625188;86;21573;-88
2022/02/09 12:11:05;;;;;;;;;;;;;;;8.72;100.00;99020.18;1654469;85;22084;-88
2022/02/09 12:13:30;;;;;;;;;;;;;;;8.72;100.00;99011.89;1645738;86;26055;-85
2022/02/09 12:16:31;;;;;;;;;;;;;;;8.74;100.00;99016.55;1637770;86;24513;-85
2022/02/09 12:18:38;;;;;;;;;;;;;;;8.81;100.00;99014.46;1637946;86;20310;-85
2022/02/09 12:21:15;;;;;;;;;;;;;;;8.88;100.00;99017.14;1652413;86;24783;-89
2022/02/09 12:23:34;;;;;;;;;;;;;;;8.95;100.00;99009.79;1653891;86;21905;-89
2022/02/09 12:26:02;;;;;;;;;;;;;;;8.99;100.00;99012.18;1652424;86;26698;-85
2022/02/09 12:28:37;;;;;;;;;;;;;;;8.96;100.00;99007.11;1656132;86;24587;-85
2022/02/09 12:31:04;;;;;;;;;;;;;;;8.91;100.00;98999.14;1648248;85;20667;-90
2022/02/09 12:33:30;;;;;;;;;;;;;;;8.86;100.00;99007.69;1649366;85;24789;-88
2022/02/09 12:35:58;;;;;;;;;;;;;;;8.78;100.00;99002.89;1620892;85;22032;-89
2022/02/09 12:38:28;;;;;;;;;;;;;;;8.73;100.00;99012.70;1650933;85;26009;-89
2022/02/09 12:41:14;;;;;;;;;;;;;;;8.65;100.00;99001.39;1615458;87;25340;-87
2022/02/09 12:43:44;;;;;;;;;;;;;;;8.61;100.00;98999.88;1674488;84;20219;-85
2022/02/09 12:46:17;;;;;;;;;;;;;;;8.57;100.00;99004.85;1705875;82;24765;-85
2022/02/09 12:48:43;;;;;;;;;;;;;;;8.52;100.00;99005.55;1707109;83;21981;-85
2022/02/09 12:51:10;;;;;;;;;;;;;;;8.46;100.00;99002.42;1711809;83;26029;-85
2022/02/09 12:53:37;;;;;;;;;;;;;;;8.37;100.00;99001.14;1680235;83;24500;-85
2022/02/09 12:56:05;;;;;;;;;;;;;;;8.30;100.00;99002.37;1717098;82;21309;-84
2022/02/09 12:58:34;;;;;;;;;;;;;;;8.24;100.00;99010.48;1692561;83;24778;-88
2022/02/09 13:01:01;;;;;;;;;;;;;;;8.16;100.00;99016.09;1703236;83;21956;-90
2022/02/09 13:03:30;;;;;;;;;;;;;;;8.14;100.00;99017.08;1704458;83;26029;-90
2022/02/09 13:05:57;;;;;;;;;;;;;;;8.14;100.00;99011.88;1705243;83;24669;-89
2022/02/09 13:08:24;;;;;;;;;;;;;;;8.13;100.00;99003.69;1700711;83;20267;-90
2022/02/09 13:10:56;;;;;;;;;;;;;;;8.13;100.00;99007.11;1705741;82;24738;-89
2022/02/09 13:13:30;;;;;;;;;;;;;;;8.11;100.00;99005.06;1700682;83;22033;-89
2022/02/09 13:16:11;;;;;;;;;;;;;;;8.11;100.00;99015.95;1704881;83;26171;-90
2022/02/09 13:18:43;;;;;;;;;;;;;;;8.07;100.00;99012.66;1701781;83;25166;-89
2022/02/09 13:22:04;;;;;;;;;;;;;;;8.05;100.00;99014.95;1700493;83;20211;-89
2022/02/09 13:23:53;;;;;;;;;;;;;;;8.03;100.00;99008.95;1667626;85;24720;-89
2022/02/09 13:51:57;;;;;;;;;;;;;;;8.07;100.00;99006.15;1640020;83;24669;-88
2022/02/09 14:10:57;;;;;;;;;;;;;;;7.70;100.00;99027.95;1648820;86;26375;-89
2022/02/09 14:13:47;;;;;;;;;;;;;;;7.69;100.00;99024.14;1643264;86;24466;-89
2022/02/09 14:51:53;;;;;;;;;;;;;;;7.53;100.00;99013.14;1650372;86;27079;-87
2022/02/09 14:54:17;;;;;;;;;;;;;;;7.53;100.00;99013.59;1624318;86;20175;-87
2022/02/09 14:56:55;;;;;;;;;;;;;;;7.53;100.00;99016.20;1664899;85;20394;-87
2022/02/09 15:01:59;;;;;;;;;;;;;;;7.57;100.00;99015.16;1638119;85;22727;-87
2022/02/09 15:12:26;;;;;;;;;;;;;;;7.61;100.00;99019.75;1664872;85;24813;-87
2022/02/09 15:22:23;;;;;;;;;;;;;;;7.56;100.00;99013.46;1620204;83;20253;-89
2022/02/09 15:24:54;;;;;;;;;;;;;;;7.58;100.00;99018.61;1667302;85;24826;-89
2022/02/09 15:27:21;;;;;;;;;;;;;;;7.55;100.00;99020.89;1669313;85;22045;-88
2022/02/09 15:29:50;;;;;;;;;;;;;;;7.52;100.00;99015.39;1659800;84;26003;-89
2022/02/09 15:32:29;;;;;;;;;;;;;;;7.51;100.00;99018.91;1668765;85;24510;-87
2022/02/09 15:34:56;;;;;;;;;;;;;;;7.50;100.00;99013.30;1674830;84;20193;-87
2022/02/09 15:37:28;;;;;;;;;;;;;;;7.51;100.00;99014.15;1674421;84;24760;-87
2022/02/09 15:39:52;;;;;;;;;;;;;;;7.51;100.00;99011.55;1668010;84;21997;-85
2022/02/09 16:23:03;;;;;;;;;;;;;;;7.50;100.00;98991.16;1666213;84;26145;-88
2022/02/09 16:44:21;;;;;;;;;;;;;;;7.47;100.00;99013.43;1670776;85;24978;-86
2022/02/09 16:46:52;;;;;;;;;;;;;;;7.46;100.00;99016.13;1667193;85;22795;-87
2022/02/09 16:49:25;;;;;;;;;;;;;;;7.47;100.00;99012.13;1659506;85;26081;-87
2022/02/09 16:51:50;;;;;;;;;;;;;;;7.46;100.00;99014.83;1666002;85;24604;-86
2022/02/09 17:21:12;;;;;;;;;;;;;;;7.14;100.00;99051.03;1671538;85;20487;-88
2022/02/09 17:23:39;;;;;;;;;;;;;;;7.13;100.00;99052.40;1667925;85;24857;-89
2022/02/09 17:26:05;;;;;;;;;;;;;;;7.12;100.00;99055.45;1672198;85;22125;-88
2022/02/09 17:28:58;;;;;;;;;;;;;;;7.09;100.00;99056.88;1670357;85;26029;-89
2022/02/09 17:57:56;;;;;;;;;;;;;;;6.56;100.00;99049.34;1668632;85;24750;-87
2022/02/09 18:00:21;;;;;;;;;;;;;;;6.53;100.00;99052.94;1662775;85;20520;-87
2022/02/09 18:02:49;;;;;;;;;;;;;;;6.52;100.00;99051.70;1674764;83;25508;-88
2022/02/09 18:05:43;;;;;;;;;;;;;;;6.51;100.00;99053.45;1668313;83;23619;-89
2022/02/09 18:08:02;;;;;;;;;;;;;;;6.51;100.00;99050.84;1680519;85;26655;-89
2022/02/09 18:14:20;;;;;;;;;;;;;;;6.46;100.00;99051.95;1668094;85;20232;-90
2022/02/09 18:45:21;;;;;;;;;;;;;;;6.52;100.00;99064.69;1659316;85;22051;-89
2022/02/09 18:47:51;;;;;;;;;;;;;;;6.52;100.00;99060.80;1675245;85;25985;-89
2022/02/09 19:02:22;;;;;;;;;;;;;;;6.49;100.00;99079.95;1668715;85;25500;-88
2022/02/09 19:03:55;;;;;;;;;;;;;;;6.51;100.00;99069.50;1658823;83;24444;-89
2022/02/09 19:06:39;;;;;;;;;;;;;;;6.50;100.00;99068.66;1681828;85;20577;-89
2022/02/09 19:14:09;;;;;;;;;;;;;;;6.51;100.00;99069.50;1675589;85;24770;-88
2022/02/09 19:14:23;;;;;;;;;;;;;;;6.51;100.00;99070.34;1670134;85;26244;-89
2022/02/09 19:19:53;;;;;;;;;;;;;;;6.54;100.00;99065.48;1676819;85;20282;-85
2022/02/09 19:27:43;;;;;;;;;;;;;;;6.51;100.00;99068.20;1599760;87;26108;-85
2022/02/09 19:30:03;;;;;;;;;;;;;;;6.52;100.00;99065.99;1682303;84;24404;-84
2022/02/09 19:32:56;;;;;;;;;;;;;;;6.53;100.00;99074.19;1683175;84;20234;-85
2022/02/09 19:48:35;;;;;;;;;;;;;;;6.54;100.00;99055.93;1666120;85;24774;-84
2022/02/09 19:51:09;;;;;;;;;;;;;;;6.55;100.00;99056.75;1663393;84;22072;-84
2022/02/09 19:53:29;;;;;;;;;;;;;;;6.55;100.00;99052.84;1677792;85;26129;-84
2022/02/09 19:56:01;;;;;;;;;;;;;;;6.56;100.00;99061.89;1694047;83;24408;-84
2022/02/09 19:58:38;;;;;;;;;;;;;;;6.55;100.00;99054.99;1692736;83;20231;-84
2022/02/09 20:00:57;;;;;;;;;;;;;;;6.54;100.00;99058.53;1700999;84;24953;-85
2022/02/09 20:03:21;;;;;;;;;;;;;;;6.56;100.00;99059.29;1668168;84;21975;-84
2022/02/09 20:05:47;;;;;;;;;;;;;;;6.54;100.00;99060.28;1696677;82;25965;-84
2022/02/09 20:08:13;;;;;;;;;;;;;;;6.53;100.00;99057.29;1696376;83;24086;-84
2022/02/09 20:10:39;;;;;;;;;;;;;;;6.56;100.00;99057.14;1670575;85;20261;-84
2022/02/09 20:13:05;;;;;;;;;;;;;;;6.57;100.00;99058.83;1708598;83;24759;-84
2022/02/09 20:15:32;;;;;;;;;;;;;;;6.57;100.00;99063.58;1675947;84;21967;-85
2022/02/09 20:17:58;;;;;;;;;;;;;;;6.57;100.00;99060.14;1659549;85;25993;-85
2022/02/09 20:20:28;;;;;;;;;;;;;;;6.58;100.00;99059.23;1657047;85;24466;-84
2022/02/09 20:22:56;;;;;;;;;;;;;;;6.56;100.00;99057.14;1677540;85;20296;-85
2022/02/09 20:25:23;;;;;;;;;;;;;;;6.57;100.00;99065.34;1679849;85;24876;-85
2022/02/09 20:27:52;;;;;;;;;;;;;;;6.56;100.00;99060.59;1680718;85;22037;-85
2022/02/09 20:30:20;;;;;;;;;;;;;;;6.55;100.00;99061.95;1687075;83;27082;-85
2022/02/09 20:32:57;;;;;;;;;;;;;;;6.55;100.00;99060.64;1685250;84;25177;-85
2022/02/09 20:35:19;;;;;;;;;;;;;;;6.54;100.00;99066.78;1684602;85;20287;-85
2022/02/09 20:37:54;;;;;;;;;;;;;;;6.56;100.00;99064.48;1677303;84;24746;-85
2022/02/09 20:40:33;;;;;;;;;;;;;;;6.55;100.00;99061.49;1680193;84;22025;-84
2022/02/09 20:42:57;;;;;;;;;;;;;;;6.57;100.00;99054.94;1684753;84;26131;-84
2022/02/09 20:48:01;;;;;;;;;;;;;;;6.58;100.00;99042.33;1683126;85;20176;-84
2022/02/09 20:50:25;;;;;;;;;;;;;;;6.59;100.00;99047.47;1686105;85;24891;-84
2022/02/09 20:52:51;;;;;;;;;;;;;;;6.61;100.00;99044.33;1680859;84;22822;-84
2022/02/09 20:55:17;;;;;;;;;;;;;;;6.60;100.00;99040.03;1683029;85;25964;-84
2022/02/09 20:57:43;;;;;;;;;;;;;;;6.60;100.00;99039.22;1682089;84;24480;-84
2022/02/09 21:00:18;;;;;;;;;;;;;;;6.59;100.00;99042.72;1674104;85;20204;-84
2022/02/09 21:08:14;;;;;;;;;;;;;;;6.58;100.00;99038.42;1667523;85;26007;-84
2022/02/09 21:13:44;;;;;;;;;;;;;;;6.55;100.00;99023.79;1648552;85;20210;-84
2022/02/09 21:30:00;;;;;;;;;;;;;;;6.54;100.00;99040.78;1671754;85;24376;-83
2022/02/09 21:44:54;;;;;;;;;;;;;;;6.58;100.00;99050.13;1652477;84;22105;-84
2022/02/09 21:52:57;;;;;;;;;;;;;;;6.54;100.00;99041.63;1677285;83;20255;-84
2022/02/09 21:55:32;;;;;;;;;;;;;;;6.54;100.00;99044.23;1669528;84;24760;-84
2022/02/09 22:00:42;;;;;;;;;;;;;;;6.52;100.00;99049.94;1690694;83;27076;-84
2022/02/09 22:19:59;;;;;;;;;;;;;;;6.42;100.00;99010.95;1687354;83;20571;-87
2022/02/09 22:27:37;;;;;;;;;;;;;;;6.47;100.00;99017.25;1682714;83;26157;-88
2022/02/09 22:54:35;;;;;;;;;;;;;;;6.39;100.00;99019.33;1688673;84;26154;-88
2022/02/09 22:56:55;;;;;;;;;;;;;;;6.38;100.00;99014.61;1685858;84;25305;-88
2022/02/09 22:59:29;;;;;;;;;;;;;;;6.41;100.00;99017.06;1683795;84;20785;-88
2022/02/09 23:01:57;;;;;;;;;;;;;;;6.39;100.00;99010.23;1687466;84;24858;-88
2022/02/09 23:04:37;;;;;;;;;;;;;;;6.40;100.00;99005.42;1692924;83;22128;-88
2022/02/09 23:07:02;;;;;;;;;;;;;;;6.40;100.00;99000.22;1687410;83;26006;-88
2022/02/09 23:14:45;;;;;;;;;;;;;;;6.40;100.00;98988.08;1683125;84;24777;-88
2022/02/09 23:25:20;;;;;;;;;;;;;;;6.43;100.00;98977.56;1687833;84;20296;-88
